• pl
  • eng

Awiacja
WIADOMOŚCI
ostatnia aktualizacja: 26.09.2019 09:57
Uprzejmie informujemy, że od dnia 2.09.2019 jest dostępna w formie testowej prognoza GAFOR. Prosimy o przesyłanie na adres gafor@imgw.pl uwag i sugestii, które przyczynią się do rozwoju produktu.
Komunikaty METAR z lotnisk wojskowych. 16:01 20.02.2020

METAR EPCE 201530Z 18009KT 140V210 9999 FEW030 05/M01
Q1015 RMK 050 067 1/1=

METAR EPDA 201530Z 18014KT 9999 OVC054 07/M01
Q1014 RMK 066 058 8/8=

METAR EPDE 201530Z 20004KT 9999 SCT030 BKN047 04/M00 Q1021 RMK 040
073 7/3=

METAR EPIR 201530Z 17008KT 9999 FEW035 SCT200 06/M01 Q1018 RMK 061
060 3/1 =

METAR EPKS 201530Z 18007KT 150V210 9999 NSC 06/M01 Q1018 RMK 064
057 3/3=

METAR EPLK 201530Z 15006KT 9999 BKN040 BKN200 05/01 Q1020 RMK 046
079 6/5=

METAR EPLY 201530Z 18004KT 9999 SCT040 06/01 Q1020 RMK 057 072 4/4=

METAR EPMB 201530Z 20009KT 9999 BKN034 06/03 Q1017 RMK 057 080 5/5=

METAR EPMI 201530Z 18007KT 130V240 9999 BKN033 06/M01 Q1015 RMK 062
059 6/6=

METAR EPMM 201530Z 28004KT 9999 SCT030 03/M02 Q1020 RMK 029 071 3/3=

METAR EPNA 201530Z 18006KT 9999 FEW070 BKN200 06/M03 Q1015 RMK 056
055 5/2=

METAR EPOK 201530Z 18011KT 9999 SCT027 BKN/// 06/00
Q1015 RMK 058 068 5/3=

METAR EPPR 201530Z 14004KT 9999 SCT036 06/02 Q1017 RMK 055 076 4/4=

METAR EPPW 201530Z 20008KT 9999 NSC 06/M01 Q1018 RMK 057 062 3/3=

METAR EPRA 201530Z 18004KT 9999 BKN050 04/M01 Q1021 RMK 039 072 5/5=

METAR EPSN 201530Z 19012KT 9999 BKN030 BKN100 07/M00 Q1014 RMK 065
061 7/5=

METAR EPTM 201530Z 21004KT 9999 BKN037 05/01 Q1021 RMK 046 075 7/7=
 METAR EPBC
Lokalizacja:
Czas::
Średnia prędkość wiatru: węzłów
Widzialność:0 metrów
Awiacja.imgw.pl jest pogodowym serwisem informacyjnym
Instytutu Meteorologii i Gospodarki Wodnej Państwowego Instytutu Badawczego.
Copyright IMGW PIB 2009-2019© Wszelkie prawa zastrzeżone.